sensor_id;sensor_type;location;lat;lon;timestamp;P1;durP1;ratioP1;P2;durP2;ratioP2
8556;SDS011;4316;53.840;10.762;2023-02-01T00:01:43;32.70;;;5.73;;
8556;SDS011;4316;53.840;10.762;2023-02-01T00:04:09;42.53;;;7.07;;
8556;SDS011;4316;53.840;10.762;2023-02-01T00:06:35;33.97;;;6.67;;
8556;SDS011;4316;53.840;10.762;2023-02-01T00:09:00;36.70;;;7.40;;
8556;SDS011;4316;53.840;10.762;2023-02-01T00:11:26;35.80;;;6.97;;
8556;SDS011;4316;53.840;10.762;2023-02-01T00:13:52;29.07;;;6.13;;
8556;SDS011;4316;53.840;10.762;2023-02-01T00:16:22;34.97;;;7.03;;
8556;SDS011;4316;53.840;10.762;2023-02-01T00:18:49;32.20;;;7.07;;
8556;SDS011;4316;53.840;10.762;2023-02-01T00:21:17;34.57;;;7.53;;
8556;SDS011;4316;53.840;10.762;2023-02-01T00:23:45;31.33;;;6.77;;
8556;SDS011;4316;53.840;10.762;2023-02-01T00:26:15;27.57;;;5.97;;
8556;SDS011;4316;53.840;10.762;2023-02-01T00:28:43;40.03;;;7.57;;
8556;SDS011;4316;53.840;10.762;2023-02-01T00:31:09;36.20;;;7.50;;
8556;SDS011;4316;53.840;10.762;2023-02-01T00:33:34;31.20;;;5.70;;
8556;SDS011;4316;53.840;10.762;2023-02-01T00:36:01;38.53;;;6.77;;
8556;SDS011;4316;53.840;10.762;2023-02-01T00:38:32;25.90;;;5.90;;
8556;SDS011;4316;53.840;10.762;2023-02-01T00:41:03;38.20;;;8.27;;
8556;SDS011;4316;53.840;10.762;2023-02-01T00:43:34;31.23;;;6.43;;
8556;SDS011;4316;53.840;10.762;2023-02-01T00:46:00;32.17;;;6.97;;
8556;SDS011;4316;53.840;10.762;2023-02-01T00:48:26;29.90;;;6.37;;
8556;SDS011;4316;53.840;10.762;2023-02-01T00:50:51;29.20;;;7.20;;
8556;SDS011;4316;53.840;10.762;2023-02-01T00:53:17;31.97;;;6.80;;
8556;SDS011;4316;53.840;10.762;2023-02-01T00:55:46;21.47;;;5.10;;
8556;SDS011;4316;53.840;10.762;2023-02-01T00:58:12;25.77;;;5.83;;
8556;SDS011;4316;53.840;10.762;2023-02-01T01:00:38;42.33;;;8.13;;
8556;SDS011;4316;53.840;10.762;2023-02-01T01:03:04;24.13;;;4.97;;
8556;SDS011;4316;53.840;10.762;2023-02-01T01:05:46;20.93;;;5.07;;
8556;SDS011;4316;53.840;10.762;2023-02-01T01:08:13;41.07;;;6.90;;
8556;SDS011;4316;53.840;10.762;2023-02-01T01:10:40;30.53;;;6.87;;
8556;SDS011;4316;53.840;10.762;2023-02-01T01:13:06;24.50;;;5.87;;
8556;SDS011;4316;53.840;10.762;2023-02-01T01:15:37;19.67;;;5.23;;
8556;SDS011;4316;53.840;10.762;2023-02-01T01:18:03;28.90;;;6.43;;
8556;SDS011;4316;53.840;10.762;2023-02-01T01:20:29;27.17;;;6.63;;
8556;SDS011;4316;53.840;10.762;2023-02-01T01:22:55;31.63;;;6.67;;
8556;SDS011;4316;53.840;10.762;2023-02-01T01:25:21;38.20;;;6.57;;
8556;SDS011;4316;53.840;10.762;2023-02-01T01:27:46;36.53;;;7.30;;
8556;SDS011;4316;53.840;10.762;2023-02-01T01:30:12;30.90;;;6.77;;
8556;SDS011;4316;53.840;10.762;2023-02-01T01:32:38;31.00;;;6.93;;
8556;SDS011;4316;53.840;10.762;2023-02-01T01:35:04;39.43;;;7.03;;
8556;SDS011;4316;53.840;10.762;2023-02-01T01:37:30;33.17;;;7.20;;
8556;SDS011;4316;53.840;10.762;2023-02-01T01:39:56;36.43;;;7.63;;
8556;SDS011;4316;53.840;10.762;2023-02-01T01:42:22;34.50;;;6.87;;
8556;SDS011;4316;53.840;10.762;2023-02-01T01:44:59;44.20;;;7.17;;
8556;SDS011;4316;53.840;10.762;2023-02-01T01:47:37;40.40;;;6.57;;
8556;SDS011;4316;53.840;10.762;2023-02-01T01:50:08;32.50;;;7.27;;
8556;SDS011;4316;53.840;10.762;2023-02-01T01:52:37;29.67;;;5.83;;
8556;SDS011;4316;53.840;10.762;2023-02-01T01:55:05;34.47;;;6.67;;
8556;SDS011;4316;53.840;10.762;2023-02-01T01:57:33;31.27;;;6.93;;
8556;SDS011;4316;53.840;10.762;2023-02-01T02:00:13;38.70;;;7.97;;
8556;SDS011;4316;53.840;10.762;2023-02-01T02:02:44;26.43;;;6.37;;
8556;SDS011;4316;53.840;10.762;2023-02-01T02:05:13;25.77;;;5.47;;
8556;SDS011;4316;53.840;10.762;2023-02-01T02:07:40;30.53;;;6.13;;
8556;SDS011;4316;53.840;10.762;2023-02-01T02:10:12;29.47;;;6.03;;
8556;SDS011;4316;53.840;10.762;2023-02-01T02:12:39;36.30;;;8.03;;
8556;SDS011;4316;53.840;10.762;2023-02-01T02:15:07;47.43;;;7.57;;
8556;SDS011;4316;53.840;10.762;2023-02-01T02:17:55;30.93;;;6.70;;
8556;SDS011;4316;53.840;10.762;2023-02-01T02:20:30;31.77;;;7.13;;
8556;SDS011;4316;53.840;10.762;2023-02-01T02:29:26;30.57;;;7.43;;
8556;SDS011;4316;53.840;10.762;2023-02-01T02:38:10;45.80;;;8.47;;
8556;SDS011;4316;53.840;10.762;2023-02-01T02:40:52;44.27;;;8.70;;
8556;SDS011;4316;53.840;10.762;2023-02-01T02:44:03;34.17;;;6.80;;
8556;SDS011;4316;53.840;10.762;2023-02-01T02:46:54;31.37;;;6.57;;
8556;SDS011;4316;53.840;10.762;2023-02-01T02:50:34;37.47;;;7.27;;
8556;SDS011;4316;53.840;10.762;2023-02-01T02:56:12;48.50;;;8.27;;
8556;SDS011;4316;53.840;10.762;2023-02-01T02:58:58;27.70;;;7.03;;
8556;SDS011;4316;53.840;10.762;2023-02-01T03:01:43;39.23;;;7.43;;
8556;SDS011;4316;53.840;10.762;2023-02-01T03:04:27;45.80;;;8.83;;
8556;SDS011;4316;53.840;10.762;2023-02-01T03:06:53;42.63;;;8.30;;
8556;SDS011;4316;53.840;10.762;2023-02-01T03:09:26;31.30;;;7.33;;
8556;SDS011;4316;53.840;10.762;2023-02-01T03:12:00;33.87;;;7.57;;
8556;SDS011;4316;53.840;10.762;2023-02-01T03:14:50;38.33;;;8.33;;
8556;SDS011;4316;53.840;10.762;2023-02-01T03:17:21;42.33;;;8.23;;
8556;SDS011;4316;53.840;10.762;2023-02-01T03:19:51;40.63;;;7.83;;
8556;SDS011;4316;53.840;10.762;2023-02-01T03:22:23;24.43;;;6.67;;
8556;SDS011;4316;53.840;10.762;2023-02-01T03:24:55;35.43;;;8.03;;
8556;SDS011;4316;53.840;10.762;2023-02-01T03:27:30;31.80;;;6.90;;
8556;SDS011;4316;53.840;10.762;2023-02-01T03:30:21;40.53;;;7.87;;
8556;SDS011;4316;53.840;10.762;2023-02-01T03:32:51;25.57;;;5.93;;
8556;SDS011;4316;53.840;10.762;2023-02-01T03:35:34;39.80;;;7.43;;
8556;SDS011;4316;53.840;10.762;2023-02-01T03:41:05;43.83;;;8.40;;
8556;SDS011;4316;53.840;10.762;2023-02-01T03:43:58;27.07;;;5.77;;
8556;SDS011;4316;53.840;10.762;2023-02-01T03:46:33;30.13;;;7.27;;
8556;SDS011;4316;53.840;10.762;2023-02-01T03:49:05;21.60;;;4.77;;
8556;SDS011;4316;53.840;10.762;2023-02-01T03:51:34;19.93;;;4.73;;
8556;SDS011;4316;53.840;10.762;2023-02-01T03:54:03;19.70;;;5.10;;
8556;SDS011;4316;53.840;10.762;2023-02-01T03:56:31;19.63;;;4.60;;
8556;SDS011;4316;53.840;10.762;2023-02-01T03:59:01;17.33;;;4.87;;
8556;SDS011;4316;53.840;10.762;2023-02-01T04:01:32;21.00;;;4.53;;
8556;SDS011;4316;53.840;10.762;2023-02-01T04:03:58;35.47;;;6.60;;
8556;SDS011;4316;53.840;10.762;2023-02-01T04:06:25;23.90;;;5.27;;
8556;SDS011;4316;53.840;10.762;2023-02-01T04:08:52;14.67;;;4.13;;
8556;SDS011;4316;53.840;10.762;2023-02-01T04:11:18;25.67;;;5.43;;
8556;SDS011;4316;53.840;10.762;2023-02-01T04:13:43;15.50;;;3.87;;
8556;SDS011;4316;53.840;10.762;2023-02-01T04:16:09;24.37;;;4.83;;
8556;SDS011;4316;53.840;10.762;2023-02-01T04:18:35;26.97;;;5.33;;
8556;SDS011;4316;53.840;10.762;2023-02-01T04:21:17;25.33;;;5.13;;
8556;SDS011;4316;53.840;10.762;2023-02-01T04:23:42;31.33;;;5.57;;
8556;SDS011;4316;53.840;10.762;2023-02-01T04:26:08;21.03;;;4.00;;
8556;SDS011;4316;53.840;10.762;2023-02-01T04:28:33;10.40;;;3.13;;
8556;SDS011;4316;53.840;10.762;2023-02-01T04:30:59;13.73;;;2.63;;
8556;SDS011;4316;53.840;10.762;2023-02-01T04:33:24;7.20;;;2.30;;
8556;SDS011;4316;53.840;10.762;2023-02-01T04:35:50;12.83;;;1.60;;
8556;SDS011;4316;53.840;10.762;2023-02-01T04:38:16;2.90;;;1.40;;
8556;SDS011;4316;53.840;10.762;2023-02-01T04:40:41;7.93;;;2.00;;
8556;SDS011;4316;53.840;10.762;2023-02-01T04:43:07;4.03;;;1.43;;
8556;SDS011;4316;53.840;10.762;2023-02-01T04:45:33;4.97;;;1.83;;
8556;SDS011;4316;53.840;10.762;2023-02-01T04:47:58;5.60;;;4.13;;
8556;SDS011;4316;53.840;10.762;2023-02-01T04:50:24;5.17;;;2.13;;
8556;SDS011;4316;53.840;10.762;2023-02-01T04:52:49;6.83;;;1.87;;
8556;SDS011;4316;53.840;10.762;2023-02-01T04:55:15;7.87;;;2.23;;
8556;SDS011;4316;53.840;10.762;2023-02-01T04:57:40;5.90;;;1.77;;
8556;SDS011;4316;53.840;10.762;2023-02-01T05:00:07;6.77;;;2.10;;
8556;SDS011;4316;53.840;10.762;2023-02-01T05:02:34;8.83;;;1.53;;
8556;SDS011;4316;53.840;10.762;2023-02-01T05:05:00;7.30;;;1.93;;
8556;SDS011;4316;53.840;10.762;2023-02-01T05:07:25;4.50;;;1.50;;
8556;SDS011;4316;53.840;10.762;2023-02-01T05:09:51;4.80;;;1.83;;
8556;SDS011;4316;53.840;10.762;2023-02-01T05:12:17;7.70;;;2.30;;
8556;SDS011;4316;53.840;10.762;2023-02-01T05:15:01;5.10;;;1.73;;
8556;SDS011;4316;53.840;10.762;2023-02-01T05:17:27;8.40;;;2.17;;
8556;SDS011;4316;53.840;10.762;2023-02-01T05:19:52;3.73;;;1.83;;
8556;SDS011;4316;53.840;10.762;2023-02-01T05:22:18;10.60;;;2.23;;
8556;SDS011;4316;53.840;10.762;2023-02-01T05:24:44;7.17;;;2.10;;
8556;SDS011;4316;53.840;10.762;2023-02-01T05:27:09;5.93;;;1.97;;
8556;SDS011;4316;53.840;10.762;2023-02-01T05:29:35;4.67;;;1.47;;
8556;SDS011;4316;53.840;10.762;2023-02-01T05:32:00;9.10;;;2.20;;
8556;SDS011;4316;53.840;10.762;2023-02-01T05:34:26;8.20;;;2.33;;
8556;SDS011;4316;53.840;10.762;2023-02-01T05:36:52;9.17;;;2.20;;
8556;SDS011;4316;53.840;10.762;2023-02-01T05:39:17;5.47;;;2.23;;
8556;SDS011;4316;53.840;10.762;2023-02-01T05:41:43;12.60;;;3.53;;
8556;SDS011;4316;53.840;10.762;2023-02-01T05:44:10;11.07;;;2.73;;
8556;SDS011;4316;53.840;10.762;2023-02-01T05:46:36;12.87;;;3.13;;
8556;SDS011;4316;53.840;10.762;2023-02-01T05:49:02;10.93;;;2.63;;
8556;SDS011;4316;53.840;10.762;2023-02-01T05:51:28;12.37;;;3.27;;
8556;SDS011;4316;53.840;10.762;2023-02-01T05:53:54;10.47;;;2.90;;
8556;SDS011;4316;53.840;10.762;2023-02-01T05:56:19;17.70;;;3.53;;
8556;SDS011;4316;53.840;10.762;2023-02-01T05:58:45;13.70;;;3.23;;
8556;SDS011;4316;53.840;10.762;2023-02-01T06:01:11;4.67;;;1.50;;
8556;SDS011;4316;53.840;10.762;2023-02-01T06:03:36;12.83;;;3.10;;
8556;SDS011;4316;53.840;10.762;2023-02-01T06:06:02;10.57;;;2.93;;
8556;SDS011;4316;53.840;10.762;2023-02-01T06:08:29;10.57;;;3.10;;
8556;SDS011;4316;53.840;10.762;2023-02-01T06:10:58;15.57;;;2.97;;
8556;SDS011;4316;53.840;10.762;2023-02-01T06:13:24;12.13;;;2.80;;
8556;SDS011;4316;53.840;10.762;2023-02-01T06:15:50;7.07;;;2.07;;
8556;SDS011;4316;53.840;10.762;2023-02-01T06:18:16;12.30;;;3.07;;
8556;SDS011;4316;53.840;10.762;2023-02-01T06:20:42;14.33;;;3.20;;
8556;SDS011;4316;53.840;10.762;2023-02-01T06:23:07;11.80;;;2.57;;
8556;SDS011;4316;53.840;10.762;2023-02-01T06:25:33;6.00;;;2.10;;
8556;SDS011;4316;53.840;10.762;2023-02-01T06:28:01;9.50;;;3.00;;
8556;SDS011;4316;53.840;10.762;2023-02-01T06:30:27;10.90;;;2.77;;
8556;SDS011;4316;53.840;10.762;2023-02-01T06:32:53;16.33;;;3.17;;
8556;SDS011;4316;53.840;10.762;2023-02-01T06:35:19;6.07;;;2.40;;
8556;SDS011;4316;53.840;10.762;2023-02-01T06:37:44;4.47;;;1.83;;
8556;SDS011;4316;53.840;10.762;2023-02-01T06:40:10;9.03;;;1.87;;
8556;SDS011;4316;53.840;10.762;2023-02-01T06:42:36;6.33;;;1.93;;
8556;SDS011;4316;53.840;10.762;2023-02-01T06:45:02;4.27;;;1.63;;
8556;SDS011;4316;53.840;10.762;2023-02-01T06:47:27;3.90;;;1.20;;
8556;SDS011;4316;53.840;10.762;2023-02-01T06:49:53;5.33;;;1.63;;
8556;SDS011;4316;53.840;10.762;2023-02-01T06:52:19;5.27;;;1.50;;
8556;SDS011;4316;53.840;10.762;2023-02-01T06:54:44;5.37;;;1.70;;
8556;SDS011;4316;53.840;10.762;2023-02-01T06:57:10;3.03;;;1.30;;
8556;SDS011;4316;53.840;10.762;2023-02-01T06:59:35;6.97;;;1.93;;
8556;SDS011;4316;53.840;10.762;2023-02-01T07:02:05;12.07;;;1.87;;
8556;SDS011;4316;53.840;10.762;2023-02-01T07:04:34;4.70;;;1.30;;
8556;SDS011;4316;53.840;10.762;2023-02-01T07:06:59;8.70;;;2.07;;
8556;SDS011;4316;53.840;10.762;2023-02-01T07:09:25;5.23;;;1.93;;
8556;SDS011;4316;53.840;10.762;2023-02-01T07:11:50;9.20;;;2.27;;
8556;SDS011;4316;53.840;10.762;2023-02-01T07:14:16;6.90;;;1.97;;
8556;SDS011;4316;53.840;10.762;2023-02-01T07:16:41;5.53;;;1.83;;
8556;SDS011;4316;53.840;10.762;2023-02-01T07:19:07;11.93;;;2.67;;
8556;SDS011;4316;53.840;10.762;2023-02-01T07:21:32;8.47;;;2.07;;
8556;SDS011;4316;53.840;10.762;2023-02-01T07:23:58;10.13;;;1.90;;
8556;SDS011;4316;53.840;10.762;2023-02-01T07:26:24;8.17;;;2.13;;
8556;SDS011;4316;53.840;10.762;2023-02-01T07:28:49;6.47;;;2.00;;
8556;SDS011;4316;53.840;10.762;2023-02-01T07:31:16;13.97;;;2.80;;
8556;SDS011;4316;53.840;10.762;2023-02-01T07:33:45;3.63;;;1.57;;
8556;SDS011;4316;53.840;10.762;2023-02-01T07:36:12;7.77;;;2.43;;
8556;SDS011;4316;53.840;10.762;2023-02-01T07:38:39;8.83;;;2.10;;
8556;SDS011;4316;53.840;10.762;2023-02-01T07:41:05;15.93;;;2.73;;
8556;SDS011;4316;53.840;10.762;2023-02-01T07:43:31;11.07;;;2.57;;
8556;SDS011;4316;53.840;10.762;2023-02-01T07:45:58;17.87;;;3.20;;
8556;SDS011;4316;53.840;10.762;2023-02-01T07:51:48;19.50;;;3.50;;
8556;SDS011;4316;53.840;10.762;2023-02-01T07:54:36;10.00;;;2.67;;
8556;SDS011;4316;53.840;10.762;2023-02-01T07:57:01;15.47;;;3.57;;
8556;SDS011;4316;53.840;10.762;2023-02-01T08:03:35;17.23;;;3.20;;
8556;SDS011;4316;53.840;10.762;2023-02-01T08:06:01;14.60;;;3.10;;
8556;SDS011;4316;53.840;10.762;2023-02-01T08:08:27;17.90;;;3.23;;
8556;SDS011;4316;53.840;10.762;2023-02-01T08:10:57;18.00;;;3.50;;
8556;SDS011;4316;53.840;10.762;2023-02-01T08:13:26;12.03;;;3.00;;
8556;SDS011;4316;53.840;10.762;2023-02-01T08:15:52;26.23;;;4.40;;
8556;SDS011;4316;53.840;10.762;2023-02-01T08:18:22;25.93;;;4.30;;
8556;SDS011;4316;53.840;10.762;2023-02-01T08:20:47;16.90;;;3.60;;
8556;SDS011;4316;53.840;10.762;2023-02-01T08:23:13;23.17;;;4.27;;
8556;SDS011;4316;53.840;10.762;2023-02-01T08:25:40;24.23;;;3.40;;
8556;SDS011;4316;53.840;10.762;2023-02-01T08:28:06;23.27;;;4.43;;
8556;SDS011;4316;53.840;10.762;2023-02-01T08:30:32;24.33;;;5.13;;
8556;SDS011;4316;53.840;10.762;2023-02-01T08:32:58;19.03;;;4.70;;
8556;SDS011;4316;53.840;10.762;2023-02-01T08:35:23;23.57;;;3.50;;
8556;SDS011;4316;53.840;10.762;2023-02-01T08:37:50;36.10;;;6.53;;
8556;SDS011;4316;53.840;10.762;2023-02-01T08:40:16;30.87;;;5.60;;
8556;SDS011;4316;53.840;10.762;2023-02-01T08:42:42;28.20;;;4.43;;
8556;SDS011;4316;53.840;10.762;2023-02-01T08:45:21;29.33;;;5.73;;
8556;SDS011;4316;53.840;10.762;2023-02-01T08:47:49;21.90;;;4.80;;
8556;SDS011;4316;53.840;10.762;2023-02-01T08:50:16;30.67;;;6.40;;
8556;SDS011;4316;53.840;10.762;2023-02-01T08:52:42;34.57;;;5.00;;
8556;SDS011;4316;53.840;10.762;2023-02-01T08:55:08;25.67;;;5.20;;
8556;SDS011;4316;53.840;10.762;2023-02-01T08:57:34;22.10;;;4.63;;
8556;SDS011;4316;53.840;10.762;2023-02-01T09:00:00;22.77;;;4.73;;
8556;SDS011;4316;53.840;10.762;2023-02-01T09:02:26;34.07;;;6.90;;
8556;SDS011;4316;53.840;10.762;2023-02-01T09:04:52;28.93;;;6.37;;
8556;SDS011;4316;53.840;10.762;2023-02-01T09:07:21;34.30;;;7.03;;
8556;SDS011;4316;53.840;10.762;2023-02-01T09:09:47;33.80;;;7.27;;
8556;SDS011;4316;53.840;10.762;2023-02-01T09:12:12;26.50;;;6.20;;
8556;SDS011;4316;53.840;10.762;2023-02-01T09:14:38;33.07;;;6.57;;
8556;SDS011;4316;53.840;10.762;2023-02-01T09:17:03;35.73;;;6.30;;
8556;SDS011;4316;53.840;10.762;2023-02-01T09:19:30;24.83;;;5.10;;
8556;SDS011;4316;53.840;10.762;2023-02-01T09:21:56;25.93;;;6.50;;
8556;SDS011;4316;53.840;10.762;2023-02-01T09:24:22;33.27;;;6.23;;
8556;SDS011;4316;53.840;10.762;2023-02-01T09:26:48;34.13;;;5.50;;
8556;SDS011;4316;53.840;10.762;2023-02-01T09:29:14;30.73;;;5.23;;
8556;SDS011;4316;53.840;10.762;2023-02-01T09:31:40;23.27;;;5.07;;
8556;SDS011;4316;53.840;10.762;2023-02-01T09:34:06;36.27;;;7.03;;
8556;SDS011;4316;53.840;10.762;2023-02-01T09:36:32;22.40;;;5.10;;
8556;SDS011;4316;53.840;10.762;2023-02-01T09:38:58;22.30;;;5.27;;
8556;SDS011;4316;53.840;10.762;2023-02-01T09:44:27;26.30;;;4.60;;
8556;SDS011;4316;53.840;10.762;2023-02-01T09:47:12;27.63;;;4.30;;
8556;SDS011;4316;53.840;10.762;2023-02-01T09:49:43;20.40;;;4.50;;
8556;SDS011;4316;53.840;10.762;2023-02-01T09:52:15;21.73;;;3.50;;
8556;SDS011;4316;53.840;10.762;2023-02-01T09:54:49;17.57;;;3.30;;
8556;SDS011;4316;53.840;10.762;2023-02-01T09:57:49;17.30;;;4.10;;
8556;SDS011;4316;53.840;10.762;2023-02-01T10:00:26;8.13;;;2.40;;
8556;SDS011;4316;53.840;10.762;2023-02-01T10:02:55;15.93;;;4.00;;
8556;SDS011;4316;53.840;10.762;2023-02-01T10:08:20;24.40;;;3.67;;
8556;SDS011;4316;53.840;10.762;2023-02-01T10:10:55;13.33;;;3.57;;
8556;SDS011;4316;53.840;10.762;2023-02-01T10:13:42;18.83;;;3.93;;
8556;SDS011;4316;53.840;10.762;2023-02-01T10:16:31;16.27;;;3.73;;
8556;SDS011;4316;53.840;10.762;2023-02-01T10:19:22;22.40;;;4.30;;
8556;SDS011;4316;53.840;10.762;2023-02-01T10:22:09;23.07;;;5.10;;
8556;SDS011;4316;53.840;10.762;2023-02-01T10:24:51;20.57;;;4.00;;
8556;SDS011;4316;53.840;10.762;2023-02-01T10:27:36;25.27;;;5.13;;
8556;SDS011;4316;53.840;10.762;2023-02-01T10:30:09;21.47;;;4.37;;
8556;SDS011;4316;53.840;10.762;2023-02-01T10:32:42;31.00;;;4.97;;
8556;SDS011;4316;53.840;10.762;2023-02-01T10:35:10;15.73;;;3.90;;
8556;SDS011;4316;53.840;10.762;2023-02-01T10:37:40;30.60;;;5.67;;
8556;SDS011;4316;53.840;10.762;2023-02-01T10:42:47;28.63;;;6.00;;
8556;SDS011;4316;53.840;10.762;2023-02-01T10:45:17;18.57;;;4.47;;
8556;SDS011;4316;53.840;10.762;2023-02-01T10:47:45;22.23;;;5.20;;
8556;SDS011;4316;53.840;10.762;2023-02-01T10:53:17;33.63;;;6.77;;
8556;SDS011;4316;53.840;10.762;2023-02-01T10:55:53;22.67;;;5.10;;
8556;SDS011;4316;53.840;10.762;2023-02-01T10:58:21;26.27;;;5.33;;
8556;SDS011;4316;53.840;10.762;2023-02-01T11:00:54;28.47;;;5.63;;
8556;SDS011;4316;53.840;10.762;2023-02-01T11:03:40;18.20;;;6.23;;
8556;SDS011;4316;53.840;10.762;2023-02-01T11:09:25;24.70;;;5.63;;
8556;SDS011;4316;53.840;10.762;2023-02-01T11:11:32;26.67;;;6.20;;
8556;SDS011;4316;53.840;10.762;2023-02-01T11:13:59;24.20;;;5.67;;
8556;SDS011;4316;53.840;10.762;2023-02-01T11:16:31;30.77;;;6.20;;
8556;SDS011;4316;53.840;10.762;2023-02-01T11:18:59;27.73;;;6.80;;
8556;SDS011;4316;53.840;10.762;2023-02-01T11:21:25;26.00;;;6.23;;
8556;SDS011;4316;53.840;10.762;2023-02-01T11:23:51;32.80;;;6.57;;
8556;SDS011;4316;53.840;10.762;2023-02-01T11:26:21;27.53;;;7.10;;
8556;SDS011;4316;53.840;10.762;2023-02-01T11:28:56;20.93;;;5.20;;
8556;SDS011;4316;53.840;10.762;2023-02-01T11:31:28;27.53;;;5.53;;
8556;SDS011;4316;53.840;10.762;2023-02-01T11:33:55;25.00;;;4.37;;
8556;SDS011;4316;53.840;10.762;2023-02-01T11:36:26;11.73;;;2.93;;
8556;SDS011;4316;53.840;10.762;2023-02-01T11:44:31;15.17;;;4.07;;
8556;SDS011;4316;53.840;10.762;2023-02-01T11:49:54;7.40;;;2.73;;
8556;SDS011;4316;53.840;10.762;2023-02-01T11:58:12;10.20;;;2.70;;
8556;SDS011;4316;53.840;10.762;2023-02-01T12:09:34;12.47;;;3.10;;
8556;SDS011;4316;53.840;10.762;2023-02-01T12:14:59;16.87;;;3.97;;
8556;SDS011;4316;53.840;10.762;2023-02-01T12:28:57;18.77;;;4.60;;
8556;SDS011;4316;53.840;10.762;2023-02-01T12:34:42;23.73;;;4.73;;
8556;SDS011;4316;53.840;10.762;2023-02-01T12:37:26;14.07;;;4.03;;
8556;SDS011;4316;53.840;10.762;2023-02-01T12:43:00;13.37;;;3.43;;
8556;SDS011;4316;53.840;10.762;2023-02-01T12:45:32;16.67;;;3.33;;
8556;SDS011;4316;53.840;10.762;2023-02-01T12:50:45;9.10;;;3.10;;
8556;SDS011;4316;53.840;10.762;2023-02-01T12:53:18;13.53;;;3.13;;
8556;SDS011;4316;53.840;10.762;2023-02-01T12:55:55;12.60;;;2.57;;
8556;SDS011;4316;53.840;10.762;2023-02-01T12:58:35;5.40;;;2.07;;
8556;SDS011;4316;53.840;10.762;2023-02-01T13:01:11;8.97;;;2.40;;
8556;SDS011;4316;53.840;10.762;2023-02-01T13:03:53;3.53;;;1.30;;
8556;SDS011;4316;53.840;10.762;2023-02-01T13:06:42;9.30;;;2.10;;
8556;SDS011;4316;53.840;10.762;2023-02-01T13:09:28;2.77;;;1.40;;
8556;SDS011;4316;53.840;10.762;2023-02-01T13:12:10;7.50;;;1.73;;
8556;SDS011;4316;53.840;10.762;2023-02-01T13:14:56;7.80;;;1.83;;
8556;SDS011;4316;53.840;10.762;2023-02-01T13:17:28;12.47;;;3.17;;
8556;SDS011;4316;53.840;10.762;2023-02-01T13:19:57;6.47;;;2.60;;
8556;SDS011;4316;53.840;10.762;2023-02-01T13:22:36;8.50;;;2.23;;
8556;SDS011;4316;53.840;10.762;2023-02-01T13:27:38;7.53;;;2.40;;
8556;SDS011;4316;53.840;10.762;2023-02-01T13:30:10;6.97;;;2.40;;
8556;SDS011;4316;53.840;10.762;2023-02-01T13:32:54;5.70;;;2.10;;
8556;SDS011;4316;53.840;10.762;2023-02-01T13:41:31;9.30;;;2.90;;
8556;SDS011;4316;53.840;10.762;2023-02-01T13:44:05;2.77;;;1.40;;
8556;SDS011;4316;53.840;10.762;2023-02-01T13:46:44;3.67;;;1.40;;
8556;SDS011;4316;53.840;10.762;2023-02-01T13:49:22;2.20;;;1.13;;
8556;SDS011;4316;53.840;10.762;2023-02-01T13:51:51;1.67;;;1.10;;
8556;SDS011;4316;53.840;10.762;2023-02-01T13:54:33;1.23;;;0.83;;
8556;SDS011;4316;53.840;10.762;2023-02-01T13:57:05;2.17;;;0.80;;
8556;SDS011;4316;53.840;10.762;2023-02-01T13:59:52;3.67;;;1.10;;
8556;SDS011;4316;53.840;10.762;2023-02-01T14:05:10;1.10;;;1.00;;
8556;SDS011;4316;53.840;10.762;2023-02-01T14:08:00;5.47;;;1.30;;
8556;SDS011;4316;53.840;10.762;2023-02-01T14:23:41;4.60;;;1.50;;
8556;SDS011;4316;53.840;10.762;2023-02-01T14:26:55;2.53;;;1.40;;
8556;SDS011;4316;53.840;10.762;2023-02-01T14:31:44;6.83;;;1.60;;
8556;SDS011;4316;53.840;10.762;2023-02-01T14:37:08;4.83;;;1.90;;
8556;SDS011;4316;53.840;10.762;2023-02-01T14:42:22;10.07;;;1.67;;
8556;SDS011;4316;53.840;10.762;2023-02-01T14:44:50;13.93;;;2.83;;
8556;SDS011;4316;53.840;10.762;2023-02-01T14:52:32;7.50;;;1.93;;
8556;SDS011;4316;53.840;10.762;2023-02-01T14:55:02;9.67;;;2.63;;
8556;SDS011;4316;53.840;10.762;2023-02-01T14:57:31;6.90;;;2.37;;
8556;SDS011;4316;53.840;10.762;2023-02-01T15:00:05;7.03;;;2.07;;
8556;SDS011;4316;53.840;10.762;2023-02-01T15:02:44;13.77;;;3.03;;
8556;SDS011;4316;53.840;10.762;2023-02-01T15:05:25;10.63;;;2.27;;
8556;SDS011;4316;53.840;10.762;2023-02-01T15:07:56;8.93;;;2.10;;
8556;SDS011;4316;53.840;10.762;2023-02-01T15:10:25;9.93;;;2.23;;
8556;SDS011;4316;53.840;10.762;2023-02-01T15:12:53;12.30;;;2.40;;
8556;SDS011;4316;53.840;10.762;2023-02-01T15:15:20;9.10;;;2.33;;
8556;SDS011;4316;53.840;10.762;2023-02-01T15:17:49;17.90;;;3.10;;
8556;SDS011;4316;53.840;10.762;2023-02-01T15:20:26;11.60;;;3.37;;
8556;SDS011;4316;53.840;10.762;2023-02-01T15:22:54;20.90;;;3.30;;
8556;SDS011;4316;53.840;10.762;2023-02-01T15:25:29;12.13;;;3.30;;
8556;SDS011;4316;53.840;10.762;2023-02-01T15:27:56;20.57;;;3.13;;
8556;SDS011;4316;53.840;10.762;2023-02-01T15:32:50;11.43;;;2.93;;
8556;SDS011;4316;53.840;10.762;2023-02-01T15:46:38;19.50;;;3.80;;
8556;SDS011;4316;53.840;10.762;2023-02-01T15:51:53;22.93;;;5.13;;
8556;SDS011;4316;53.840;10.762;2023-02-01T15:54:42;16.27;;;4.30;;
8556;SDS011;4316;53.840;10.762;2023-02-01T15:57:09;16.63;;;4.10;;
8556;SDS011;4316;53.840;10.762;2023-02-01T15:59:37;17.90;;;4.90;;
8556;SDS011;4316;53.840;10.762;2023-02-01T16:02:24;18.47;;;4.60;;
8556;SDS011;4316;53.840;10.762;2023-02-01T16:04:51;20.40;;;4.13;;
8556;SDS011;4316;53.840;10.762;2023-02-01T16:07:26;14.23;;;3.73;;
8556;SDS011;4316;53.840;10.762;2023-02-01T16:09:54;25.37;;;5.07;;
8556;SDS011;4316;53.840;10.762;2023-02-01T16:12:32;21.00;;;4.70;;
8556;SDS011;4316;53.840;10.762;2023-02-01T16:15:09;28.60;;;5.07;;
8556;SDS011;4316;53.840;10.762;2023-02-01T16:17:35;18.03;;;3.93;;
8556;SDS011;4316;53.840;10.762;2023-02-01T16:20:00;24.93;;;4.63;;
8556;SDS011;4316;53.840;10.762;2023-02-01T16:22:26;29.37;;;5.53;;
8556;SDS011;4316;53.840;10.762;2023-02-01T16:24:52;25.43;;;5.43;;
8556;SDS011;4316;53.840;10.762;2023-02-01T16:27:17;26.70;;;4.47;;
8556;SDS011;4316;53.840;10.762;2023-02-01T16:29:43;33.87;;;5.23;;
8556;SDS011;4316;53.840;10.762;2023-02-01T16:32:22;34.23;;;5.23;;
8556;SDS011;4316;53.840;10.762;2023-02-01T16:34:48;29.77;;;5.73;;
8556;SDS011;4316;53.840;10.762;2023-02-01T16:37:16;22.93;;;5.50;;
8556;SDS011;4316;53.840;10.762;2023-02-01T16:39:45;20.00;;;5.33;;
8556;SDS011;4316;53.840;10.762;2023-02-01T16:42:11;33.00;;;5.27;;
8556;SDS011;4316;53.840;10.762;2023-02-01T16:44:38;25.27;;;5.30;;
8556;SDS011;4316;53.840;10.762;2023-02-01T16:47:08;35.83;;;5.93;;
8556;SDS011;4316;53.840;10.762;2023-02-01T16:49:38;15.70;;;4.53;;
8556;SDS011;4316;53.840;10.762;2023-02-01T16:52:08;22.93;;;5.53;;
8556;SDS011;4316;53.840;10.762;2023-02-01T16:54:41;27.73;;;6.17;;
8556;SDS011;4316;53.840;10.762;2023-02-01T16:57:10;19.53;;;4.97;;
8556;SDS011;4316;53.840;10.762;2023-02-01T16:59:40;26.93;;;5.77;;
8556;SDS011;4316;53.840;10.762;2023-02-01T17:02:13;19.77;;;5.17;;
8556;SDS011;4316;53.840;10.762;2023-02-01T17:04:44;31.60;;;6.53;;
8556;SDS011;4316;53.840;10.762;2023-02-01T17:07:17;30.23;;;6.57;;
8556;SDS011;4316;53.840;10.762;2023-02-01T17:09:43;32.37;;;7.13;;
8556;SDS011;4316;53.840;10.762;2023-02-01T17:12:26;33.20;;;6.40;;
8556;SDS011;4316;53.840;10.762;2023-02-01T17:14:54;29.03;;;6.70;;
8556;SDS011;4316;53.840;10.762;2023-02-01T17:17:20;26.57;;;5.60;;
8556;SDS011;4316;53.840;10.762;2023-02-01T17:19:47;20.50;;;4.40;;
8556;SDS011;4316;53.840;10.762;2023-02-01T17:22:21;33.07;;;6.40;;
8556;SDS011;4316;53.840;10.762;2023-02-01T17:24:47;31.70;;;6.40;;
8556;SDS011;4316;53.840;10.762;2023-02-01T17:27:14;37.03;;;6.33;;
8556;SDS011;4316;53.840;10.762;2023-02-01T17:29:41;40.27;;;6.57;;
8556;SDS011;4316;53.840;10.762;2023-02-01T17:32:12;38.87;;;7.37;;